Portada
METAR-TAF:

METAR-TAF

Aeropuertos :

Aeropuerto de Huesca-Pirineos

Huesca, España

latitud: 42-04-32N, longitud: 0-18-58W, altitud: 539 m

Observación

El informe se hizo hace 25 minutos, a las 22:00 UTC
Viento calma
Temperatura 8°C
Humedad 87%
Presión 1018 hPa
Visibilidad 10 km o más

METAR: LEHC 162200Z AUTO 00000KT 9999 NCD 08/06 Q1018

Hora: 00:25 (22:25 UTC)

Pronóstico

El informe se hizo hace 8 horas y 25 minutos, a las 14:00 UTC
Pronóstico válido del 16 a las 15 UTC al 17 a las 15 UTC
Viento 4 kt con dirección variable
Visibilidad 10 km o más
Escasas nubes a una altura de 3000 ft
Evolucionando progresivamente
del 16 a las 18 UTC al 16 a las 20 UTC
Viento 7 kt del este-noreste
Evolucionando progresivamente
del 17 a las 10 UTC al 17 a las 12 UTC
Viento 7 kt del norte-noroeste

TAF: LEHC 161400Z 1615/1715 VRB04KT 9999 FEW030 TX19/1615Z TN10/1706Z BECMG 1618/1620 07007KT BECMG 1710/1712 34007KT

Observaciones y pronósticos meteorológicos de más de 4000 aeropuertos (mensajes METAR y TAF).

Los puntos amarillos y rojos representan las estaciones disponibles.

Ponga el ratón en el punto deseado para ver el nombre de la estación.

Haga clic para ver las observaciones y los pronósticos meteorológicos.

Para cambiar el mapa : haga clic en los botones verdes con una cruz de color negro para hacer un zoom, en el botón verde con un guión para alejar o en las flechas verdes para mapas adyacentes.


METAR-TAF: